sensor_id;sensor_type;location;lat;lon;timestamp;temperature;humidity
21906;DHT22;11117;48.644;9.006;2023-03-03T00:02:08;1.70;99.90
21906;DHT22;11117;48.644;9.006;2023-03-03T00:04:34;1.80;99.90
21906;DHT22;11117;48.644;9.006;2023-03-03T00:06:59;1.80;99.90
21906;DHT22;11117;48.644;9.006;2023-03-03T00:09:25;1.80;99.90
21906;DHT22;11117;48.644;9.006;2023-03-03T00:11:55;1.90;99.90
21906;DHT22;11117;48.644;9.006;2023-03-03T00:14:28;1.90;99.90
21906;DHT22;11117;48.644;9.006;2023-03-03T00:16:55;2.00;99.90
21906;DHT22;11117;48.644;9.006;2023-03-03T00:19:20;2.00;99.90
21906;DHT22;11117;48.644;9.006;2023-03-03T00:21:48;2.00;99.90
21906;DHT22;11117;48.644;9.006;2023-03-03T00:24:22;1.90;99.90
21906;DHT22;11117;48.644;9.006;2023-03-03T00:26:56;1.90;99.90
21906;DHT22;11117;48.644;9.006;2023-03-03T00:29:36;2.00;99.90
21906;DHT22;11117;48.644;9.006;2023-03-03T00:34:41;2.20;99.90
21906;DHT22;11117;48.644;9.006;2023-03-03T00:37:26;2.20;99.90
21906;DHT22;11117;48.644;9.006;2023-03-03T00:39:53;2.20;99.90
21906;DHT22;11117;48.644;9.006;2023-03-03T00:42:19;2.10;99.90
21906;DHT22;11117;48.644;9.006;2023-03-03T00:44:45;2.00;99.90
21906;DHT22;11117;48.644;9.006;2023-03-03T00:53:20;2.20;99.90
21906;DHT22;11117;48.644;9.006;2023-03-03T00:55:50;2.20;99.90
21906;DHT22;11117;48.644;9.006;2023-03-03T00:58:16;2.10;99.90
21906;DHT22;11117;48.644;9.006;2023-03-03T01:00:42;1.90;99.90
21906;DHT22;11117;48.644;9.006;2023-03-03T01:03:11;1.90;99.90
21906;DHT22;11117;48.644;9.006;2023-03-03T01:05:37;1.90;99.90
21906;DHT22;11117;48.644;9.006;2023-03-03T01:08:03;1.80;99.90
21906;DHT22;11117;48.644;9.006;2023-03-03T01:10:31;1.50;99.90
21906;DHT22;11117;48.644;9.006;2023-03-03T01:12:58;1.50;99.90
21906;DHT22;11117;48.644;9.006;2023-03-03T01:15:24;1.40;99.90
21906;DHT22;11117;48.644;9.006;2023-03-03T01:17:50;1.30;99.90
21906;DHT22;11117;48.644;9.006;2023-03-03T01:20:15;1.30;99.90
21906;DHT22;11117;48.644;9.006;2023-03-03T01:22:41;1.20;99.90
21906;DHT22;11117;48.644;9.006;2023-03-03T01:25:07;1.20;99.90
21906;DHT22;11117;48.644;9.006;2023-03-03T01:27:34;1.10;99.90
21906;DHT22;11117;48.644;9.006;2023-03-03T01:30:00;1.10;99.90
21906;DHT22;11117;48.644;9.006;2023-03-03T01:32:26;0.90;99.90
21906;DHT22;11117;48.644;9.006;2023-03-03T01:34:53;0.80;99.90
21906;DHT22;11117;48.644;9.006;2023-03-03T01:37:19;0.80;99.90
21906;DHT22;11117;48.644;9.006;2023-03-03T01:39:51;0.70;99.90
21906;DHT22;11117;48.644;9.006;2023-03-03T01:42:17;0.60;99.90
21906;DHT22;11117;48.644;9.006;2023-03-03T01:44:43;0.60;99.90
21906;DHT22;11117;48.644;9.006;2023-03-03T01:47:17;0.50;99.90
21906;DHT22;11117;48.644;9.006;2023-03-03T01:49:52;0.40;99.90
21906;DHT22;11117;48.644;9.006;2023-03-03T01:52:30;0.30;99.90
21906;DHT22;11117;48.644;9.006;2023-03-03T01:55:07;0.30;99.90
21906;DHT22;11117;48.644;9.006;2023-03-03T01:57:40;0.20;99.90
21906;DHT22;11117;48.644;9.006;2023-03-03T02:00:09;0.20;99.90
21906;DHT22;11117;48.644;9.006;2023-03-03T02:02:35;0.20;99.90
21906;DHT22;11117;48.644;9.006;2023-03-03T02:05:01;0.20;99.90
21906;DHT22;11117;48.644;9.006;2023-03-03T02:07:27;0.20;99.90
21906;DHT22;11117;48.644;9.006;2023-03-03T02:10:02;0.10;99.90
21906;DHT22;11117;48.644;9.006;2023-03-03T02:12:35;0.10;99.90
21906;DHT22;11117;48.644;9.006;2023-03-03T02:15:22;0.10;99.90
21906;DHT22;11117;48.644;9.006;2023-03-03T02:17:51;0.00;99.90
21906;DHT22;11117;48.644;9.006;2023-03-03T02:23:26;0.00;99.90
21906;DHT22;11117;48.644;9.006;2023-03-03T02:28:24;-0.10;99.90
21906;DHT22;11117;48.644;9.006;2023-03-03T02:30:53;-0.10;99.90
21906;DHT22;11117;48.644;9.006;2023-03-03T02:33:20;-0.10;99.90
21906;DHT22;11117;48.644;9.006;2023-03-03T02:35:45;-0.20;99.90
21906;DHT22;11117;48.644;9.006;2023-03-03T02:38:31;-0.20;99.90
21906;DHT22;11117;48.644;9.006;2023-03-03T02:43:57;-0.20;99.90
21906;DHT22;11117;48.644;9.006;2023-03-03T02:46:24;-0.20;99.90
21906;DHT22;11117;48.644;9.006;2023-03-03T12:34:21;9.80;99.90
21906;DHT22;11117;48.644;9.006;2023-03-03T12:37:13;9.60;99.90
21906;DHT22;11117;48.644;9.006;2023-03-03T12:40:04;9.50;99.90
21906;DHT22;11117;48.644;9.006;2023-03-03T12:43:06;9.60;99.90
21906;DHT22;11117;48.644;9.006;2023-03-03T12:45:54;9.40;99.90
21906;DHT22;11117;48.644;9.006;2023-03-03T12:48:42;9.00;99.90
21906;DHT22;11117;48.644;9.006;2023-03-03T12:57:12;9.30;99.90
21906;DHT22;11117;48.644;9.006;2023-03-03T13:03:04;9.10;99.90
21906;DHT22;11117;48.644;9.006;2023-03-03T13:05:59;9.10;99.90
21906;DHT22;11117;48.644;9.006;2023-03-03T13:11:52;8.80;99.90
21906;DHT22;11117;48.644;9.006;2023-03-03T13:25:49;8.60;99.90
21906;DHT22;11117;48.644;9.006;2023-03-03T13:28:36;8.90;99.90
21906;DHT22;11117;48.644;9.006;2023-03-03T13:31:23;8.80;99.90
21906;DHT22;11117;48.644;9.006;2023-03-03T13:33:54;8.70;99.90
21906;DHT22;11117;48.644;9.006;2023-03-03T13:36:24;8.70;99.90
21906;DHT22;11117;48.644;9.006;2023-03-03T13:38:54;8.90;99.90
21906;DHT22;11117;48.644;9.006;2023-03-03T13:43:58;9.00;99.90
21906;DHT22;11117;48.644;9.006;2023-03-03T13:52:21;8.90;99.90
21906;DHT22;11117;48.644;9.006;2023-03-03T13:55:25;8.90;99.70
21906;DHT22;11117;48.644;9.006;2023-03-03T14:06:12;9.10;99.80
21906;DHT22;11117;48.644;9.006;2023-03-03T14:20:21;9.00;98.80
21906;DHT22;11117;48.644;9.006;2023-03-03T14:22:55;9.10;98.90
21906;DHT22;11117;48.644;9.006;2023-03-03T14:25:22;9.00;99.10
21906;DHT22;11117;48.644;9.006;2023-03-03T14:30:33;9.10;99.20
21906;DHT22;11117;48.644;9.006;2023-03-03T14:33:01;9.20;99.10
21906;DHT22;11117;48.644;9.006;2023-03-03T14:35:37;9.20;99.10
21906;DHT22;11117;48.644;9.006;2023-03-03T14:38:34;9.10;98.90
21906;DHT22;11117;48.644;9.006;2023-03-03T14:43:40;9.00;98.80
21906;DHT22;11117;48.644;9.006;2023-03-03T14:46:32;9.00;98.40
21906;DHT22;11117;48.644;9.006;2023-03-03T14:49:01;9.00;98.40
21906;DHT22;11117;48.644;9.006;2023-03-03T14:51:45;8.80;98.30
21906;DHT22;11117;48.644;9.006;2023-03-03T14:54:27;8.80;98.40
21906;DHT22;11117;48.644;9.006;2023-03-03T14:59:35;8.70;98.70
21906;DHT22;11117;48.644;9.006;2023-03-03T15:04:45;8.70;98.40
21906;DHT22;11117;48.644;9.006;2023-03-03T15:07:32;8.60;98.60
21906;DHT22;11117;48.644;9.006;2023-03-03T15:09:59;8.40;98.70
21906;DHT22;11117;48.644;9.006;2023-03-03T15:28:38;8.40;99.10
21906;DHT22;11117;48.644;9.006;2023-03-03T15:31:30;8.40;99.00
21906;DHT22;11117;48.644;9.006;2023-03-03T15:36:41;8.40;99.10
21906;DHT22;11117;48.644;9.006;2023-03-03T15:41:59;8.30;99.20
21906;DHT22;11117;48.644;9.006;2023-03-03T15:52:31;8.10;99.30
21906;DHT22;11117;48.644;9.006;2023-03-03T15:55:31;8.00;99.50
21906;DHT22;11117;48.644;9.006;2023-03-03T15:58:35;8.00;99.50
21906;DHT22;11117;48.644;9.006;2023-03-03T16:01:25;8.10;99.70
21906;DHT22;11117;48.644;9.006;2023-03-03T16:06:40;8.00;99.60
21906;DHT22;11117;48.644;9.006;2023-03-03T16:22:40;8.10;99.90
21906;DHT22;11117;48.644;9.006;2023-03-03T16:28:18;8.10;99.90
21906;DHT22;11117;48.644;9.006;2023-03-03T16:33:25;7.90;99.90
21906;DHT22;11117;48.644;9.006;2023-03-03T16:36:25;7.80;99.90
21906;DHT22;11117;48.644;9.006;2023-03-03T16:39:14;7.80;99.90
21906;DHT22;11117;48.644;9.006;2023-03-03T16:44:52;7.50;99.90
21906;DHT22;11117;48.644;9.006;2023-03-03T16:52:44;7.30;99.90
21906;DHT22;11117;48.644;9.006;2023-03-03T16:55:33;7.30;99.90
21906;DHT22;11117;48.644;9.006;2023-03-03T17:00:29;7.10;99.90
21906;DHT22;11117;48.644;9.006;2023-03-03T17:11:25;6.70;99.90
21906;DHT22;11117;48.644;9.006;2023-03-03T17:14:17;6.60;99.90
21906;DHT22;11117;48.644;9.006;2023-03-03T17:16:56;6.50;99.90
21906;DHT22;11117;48.644;9.006;2023-03-03T17:22:19;6.30;99.90
21906;DHT22;11117;48.644;9.006;2023-03-03T17:45:36;5.70;99.90
21906;DHT22;11117;48.644;9.006;2023-03-03T17:56:49;5.50;99.90
21906;DHT22;11117;48.644;9.006;2023-03-03T17:59:26;5.50;99.90
21906;DHT22;11117;48.644;9.006;2023-03-03T18:11:02;5.30;99.90
21906;DHT22;11117;48.644;9.006;2023-03-03T18:21:57;5.00;99.90
21906;DHT22;11117;48.644;9.006;2023-03-03T18:26:55;4.70;99.90
21906;DHT22;11117;48.644;9.006;2023-03-03T18:29:36;4.60;99.90
21906;DHT22;11117;48.644;9.006;2023-03-03T18:32:15;4.50;99.90
21906;DHT22;11117;48.644;9.006;2023-03-03T18:34:41;4.50;99.90
21906;DHT22;11117;48.644;9.006;2023-03-03T18:48:14;4.50;99.90
21906;DHT22;11117;48.644;9.006;2023-03-03T18:53:43;4.50;99.90
21906;DHT22;11117;48.644;9.006;2023-03-03T18:56:03;4.50;99.90
21906;DHT22;11117;48.644;9.006;2023-03-03T18:58:41;4.50;99.90
21906;DHT22;11117;48.644;9.006;2023-03-03T19:03:53;4.30;99.90
21906;DHT22;11117;48.644;9.006;2023-03-03T19:09:01;4.20;99.90
21906;DHT22;11117;48.644;9.006;2023-03-03T19:11:40;4.20;99.90
21906;DHT22;11117;48.644;9.006;2023-03-03T19:16:46;4.10;99.90
21906;DHT22;11117;48.644;9.006;2023-03-03T19:19:14;4.10;99.90
21906;DHT22;11117;48.644;9.006;2023-03-03T19:21:42;4.10;99.90
21906;DHT22;11117;48.644;9.006;2023-03-03T19:24:29;4.10;99.90
21906;DHT22;11117;48.644;9.006;2023-03-03T19:34:48;3.90;99.90
21906;DHT22;11117;48.644;9.006;2023-03-03T19:40:18;3.80;99.90
21906;DHT22;11117;48.644;9.006;2023-03-03T20:15:16;3.30;99.90
21906;DHT22;11117;48.644;9.006;2023-03-03T20:23:42;3.10;99.90
21906;DHT22;11117;48.644;9.006;2023-03-03T20:32:05;2.90;99.90
21906;DHT22;11117;48.644;9.006;2023-03-03T20:46:07;2.50;99.90
21906;DHT22;11117;48.644;9.006;2023-03-03T20:51:41;2.40;99.90
21906;DHT22;11117;48.644;9.006;2023-03-03T20:59:53;2.30;99.90
21906;DHT22;11117;48.644;9.006;2023-03-03T21:02:29;2.30;99.90
21906;DHT22;11117;48.644;9.006;2023-03-03T21:07:34;2.30;99.90
21906;DHT22;11117;48.644;9.006;2023-03-03T21:10:15;2.20;99.90
21906;DHT22;11117;48.644;9.006;2023-03-03T21:12:41;2.20;99.90
21906;DHT22;11117;48.644;9.006;2023-03-03T21:15:24;2.20;99.90
21906;DHT22;11117;48.644;9.006;2023-03-03T21:17:50;2.20;99.90
21906;DHT22;11117;48.644;9.006;2023-03-03T21:20:21;2.20;99.90
21906;DHT22;11117;48.644;9.006;2023-03-03T21:22:47;2.20;99.90
21906;DHT22;11117;48.644;9.006;2023-03-03T21:36:18;1.90;99.90
21906;DHT22;11117;48.644;9.006;2023-03-03T21:38:44;1.80;99.90
21906;DHT22;11117;48.644;9.006;2023-03-03T21:41:10;1.80;99.90
21906;DHT22;11117;48.644;9.006;2023-03-03T21:43:50;1.70;99.90
21906;DHT22;11117;48.644;9.006;2023-03-03T21:46:18;1.70;99.90
21906;DHT22;11117;48.644;9.006;2023-03-03T21:48:44;1.60;99.90
21906;DHT22;11117;48.644;9.006;2023-03-03T21:51:10;1.60;99.90
21906;DHT22;11117;48.644;9.006;2023-03-03T21:53:35;1.60;99.90
21906;DHT22;11117;48.644;9.006;2023-03-03T21:56:01;1.50;99.90
21906;DHT22;11117;48.644;9.006;2023-03-03T21:58:26;1.40;99.90
21906;DHT22;11117;48.644;9.006;2023-03-03T22:00:52;1.40;99.90
21906;DHT22;11117;48.644;9.006;2023-03-03T22:03:18;1.30;99.90
21906;DHT22;11117;48.644;9.006;2023-03-03T22:05:43;1.30;99.90
21906;DHT22;11117;48.644;9.006;2023-03-03T22:08:09;1.30;99.90
21906;DHT22;11117;48.644;9.006;2023-03-03T22:10:34;1.40;99.90
21906;DHT22;11117;48.644;9.006;2023-03-03T22:13:00;1.40;99.90
21906;DHT22;11117;48.644;9.006;2023-03-03T22:15:25;1.40;99.90
21906;DHT22;11117;48.644;9.006;2023-03-03T22:17:51;1.40;99.90
21906;DHT22;11117;48.644;9.006;2023-03-03T22:20:17;1.30;99.90
21906;DHT22;11117;48.644;9.006;2023-03-03T22:22:42;1.30;99.90
21906;DHT22;11117;48.644;9.006;2023-03-03T22:25:09;1.20;99.90
21906;DHT22;11117;48.644;9.006;2023-03-03T22:27:34;1.10;99.90
21906;DHT22;11117;48.644;9.006;2023-03-03T22:30:00;1.10;99.90
21906;DHT22;11117;48.644;9.006;2023-03-03T22:32:26;1.00;99.90
21906;DHT22;11117;48.644;9.006;2023-03-03T22:34:51;1.00;99.90
21906;DHT22;11117;48.644;9.006;2023-03-03T22:37:17;0.90;99.90
21906;DHT22;11117;48.644;9.006;2023-03-03T22:39:43;0.80;99.90
21906;DHT22;11117;48.644;9.006;2023-03-03T22:42:08;0.80;99.90
21906;DHT22;11117;48.644;9.006;2023-03-03T22:44:34;0.70;99.90
21906;DHT22;11117;48.644;9.006;2023-03-03T22:46:59;0.70;99.90
21906;DHT22;11117;48.644;9.006;2023-03-03T22:49:25;0.70;99.90
21906;DHT22;11117;48.644;9.006;2023-03-03T22:51:50;0.80;99.90
21906;DHT22;11117;48.644;9.006;2023-03-03T22:54:16;0.80;99.90
21906;DHT22;11117;48.644;9.006;2023-03-03T22:56:41;0.70;99.90
21906;DHT22;11117;48.644;9.006;2023-03-03T22:59:07;0.70;99.90
21906;DHT22;11117;48.644;9.006;2023-03-03T23:01:32;0.70;99.90
21906;DHT22;11117;48.644;9.006;2023-03-03T23:03:58;0.70;99.90
21906;DHT22;11117;48.644;9.006;2023-03-03T23:06:23;0.70;99.90
21906;DHT22;11117;48.644;9.006;2023-03-03T23:08:49;0.60;99.90
21906;DHT22;11117;48.644;9.006;2023-03-03T23:11:14;0.60;99.90
21906;DHT22;11117;48.644;9.006;2023-03-03T23:13:40;0.60;99.90
21906;DHT22;11117;48.644;9.006;2023-03-03T23:16:06;0.50;99.90
21906;DHT22;11117;48.644;9.006;2023-03-03T23:18:31;0.50;99.90
21906;DHT22;11117;48.644;9.006;2023-03-03T23:20:57;0.50;99.90
21906;DHT22;11117;48.644;9.006;2023-03-03T23:23:23;0.50;99.90
21906;DHT22;11117;48.644;9.006;2023-03-03T23:25:48;0.40;99.90
21906;DHT22;11117;48.644;9.006;2023-03-03T23:28:14;0.40;99.90
21906;DHT22;11117;48.644;9.006;2023-03-03T23:30:40;0.40;99.90
21906;DHT22;11117;48.644;9.006;2023-03-03T23:33:06;0.30;99.90
21906;DHT22;11117;48.644;9.006;2023-03-03T23:35:31;0.40;99.90
21906;DHT22;11117;48.644;9.006;2023-03-03T23:37:57;0.40;99.90
21906;DHT22;11117;48.644;9.006;2023-03-03T23:40:22;0.40;99.90
21906;DHT22;11117;48.644;9.006;2023-03-03T23:42:48;0.40;99.90
21906;DHT22;11117;48.644;9.006;2023-03-03T23:45:14;0.50;99.90
21906;DHT22;11117;48.644;9.006;2023-03-03T23:47:41;0.40;99.90
21906;DHT22;11117;48.644;9.006;2023-03-03T23:50:07;0.50;99.90
21906;DHT22;11117;48.644;9.006;2023-03-03T23:52:33;0.40;99.90
21906;DHT22;11117;48.644;9.006;2023-03-03T23:54:59;0.40;99.90
21906;DHT22;11117;48.644;9.006;2023-03-03T23:57:24;0.40;99.90
21906;DHT22;11117;48.644;9.006;2023-03-03T23:59:50;0.30;99.90
